sensor_id;sensor_type;location;lat;lon;timestamp;P1;durP1;ratioP1;P2;durP2;ratioP2
57858;SDS011;49153;45.568;11.894;2022-10-16T00:01:10;56.85;;;33.33;;
57858;SDS011;49153;45.568;11.894;2022-10-16T00:03:39;57.28;;;33.38;;
57858;SDS011;49153;45.568;11.894;2022-10-16T00:06:06;56.35;;;32.83;;
57858;SDS011;49153;45.568;11.894;2022-10-16T00:08:34;54.30;;;31.90;;
57858;SDS011;49153;45.568;11.894;2022-10-16T00:11:00;55.60;;;32.47;;
57858;SDS011;49153;45.568;11.894;2022-10-16T00:13:35;56.25;;;32.83;;
57858;SDS011;49153;45.568;11.894;2022-10-16T00:16:02;55.33;;;33.22;;
57858;SDS011;49153;45.568;11.894;2022-10-16T00:18:28;54.17;;;31.60;;
57858;SDS011;49153;45.568;11.894;2022-10-16T00:20:55;58.40;;;32.72;;
57858;SDS011;49153;45.568;11.894;2022-10-16T00:23:26;56.30;;;33.67;;
57858;SDS011;49153;45.568;11.894;2022-10-16T00:26:03;63.38;;;34.13;;
57858;SDS011;49153;45.568;11.894;2022-10-16T00:28:31;60.40;;;34.63;;
57858;SDS011;49153;45.568;11.894;2022-10-16T00:30:57;54.08;;;32.70;;
57858;SDS011;49153;45.568;11.894;2022-10-16T00:33:24;56.10;;;32.50;;
57858;SDS011;49153;45.568;11.894;2022-10-16T00:35:49;56.22;;;32.70;;
57858;SDS011;49153;45.568;11.894;2022-10-16T00:38:15;55.72;;;32.22;;
57858;SDS011;49153;45.568;11.894;2022-10-16T00:40:41;55.70;;;32.70;;
57858;SDS011;49153;45.568;11.894;2022-10-16T00:43:53;55.40;;;32.67;;
57858;SDS011;49153;45.568;11.894;2022-10-16T00:46:13;60.95;;;34.40;;
57858;SDS011;49153;45.568;11.894;2022-10-16T00:48:42;59.08;;;33.90;;
57858;SDS011;49153;45.568;11.894;2022-10-16T00:51:10;58.42;;;33.42;;
57858;SDS011;49153;45.568;11.894;2022-10-16T00:53:36;53.80;;;32.40;;
57858;SDS011;49153;45.568;11.894;2022-10-16T00:56:02;55.33;;;32.88;;
57858;SDS011;49153;45.568;11.894;2022-10-16T00:58:28;61.13;;;34.60;;
57858;SDS011;49153;45.568;11.894;2022-10-16T01:00:53;59.65;;;33.17;;
57858;SDS011;49153;45.568;11.894;2022-10-16T01:03:26;58.53;;;34.08;;
57858;SDS011;49153;45.568;11.894;2022-10-16T01:14:19;60.85;;;33.97;;
57858;SDS011;49153;45.568;11.894;2022-10-16T01:17:06;61.10;;;35.07;;
57858;SDS011;49153;45.568;11.894;2022-10-16T01:20:00;58.03;;;33.53;;
57858;SDS011;49153;45.568;11.894;2022-10-16T01:25:23;56.72;;;32.40;;
57858;SDS011;49153;45.568;11.894;2022-10-16T01:27:58;60.50;;;34.92;;
57858;SDS011;49153;45.568;11.894;2022-10-16T01:30:26;59.80;;;35.17;;
57858;SDS011;49153;45.568;11.894;2022-10-16T01:33:07;57.05;;;33.30;;
57858;SDS011;49153;45.568;11.894;2022-10-16T01:35:37;57.42;;;33.47;;
57858;SDS011;49153;45.568;11.894;2022-10-16T01:38:07;57.90;;;32.47;;
57858;SDS011;49153;45.568;11.894;2022-10-16T01:40:41;61.03;;;33.47;;
57858;SDS011;49153;45.568;11.894;2022-10-16T01:43:13;60.17;;;34.60;;
57858;SDS011;49153;45.568;11.894;2022-10-16T01:45:41;58.33;;;33.88;;
57858;SDS011;49153;45.568;11.894;2022-10-16T01:48:11;58.85;;;32.80;;
57858;SDS011;49153;45.568;11.894;2022-10-16T01:50:42;57.95;;;32.40;;
57858;SDS011;49153;45.568;11.894;2022-10-16T01:53:10;58.67;;;32.47;;
57858;SDS011;49153;45.568;11.894;2022-10-16T01:55:40;59.17;;;35.17;;
57858;SDS011;49153;45.568;11.894;2022-10-16T01:58:10;56.83;;;32.33;;
57858;SDS011;49153;45.568;11.894;2022-10-16T02:00:39;59.63;;;34.78;;
57858;SDS011;49153;45.568;11.894;2022-10-16T02:03:08;65.90;;;35.30;;
57858;SDS011;49153;45.568;11.894;2022-10-16T02:05:39;59.33;;;33.78;;
57858;SDS011;49153;45.568;11.894;2022-10-16T02:08:11;58.00;;;33.05;;
57858;SDS011;49153;45.568;11.894;2022-10-16T02:10:37;62.15;;;34.88;;
57858;SDS011;49153;45.568;11.894;2022-10-16T02:13:05;58.83;;;33.63;;
57858;SDS011;49153;45.568;11.894;2022-10-16T02:15:33;60.25;;;34.42;;
57858;SDS011;49153;45.568;11.894;2022-10-16T02:17:59;58.53;;;33.72;;
57858;SDS011;49153;45.568;11.894;2022-10-16T02:20:26;58.97;;;34.72;;
57858;SDS011;49153;45.568;11.894;2022-10-16T02:22:57;57.40;;;32.80;;
57858;SDS011;49153;45.568;11.894;2022-10-16T02:25:34;58.15;;;32.90;;
57858;SDS011;49153;45.568;11.894;2022-10-16T02:28:07;59.95;;;34.78;;
57858;SDS011;49153;45.568;11.894;2022-10-16T02:33:13;57.88;;;32.97;;
57858;SDS011;49153;45.568;11.894;2022-10-16T02:35:41;59.83;;;32.80;;
57858;SDS011;49153;45.568;11.894;2022-10-16T02:38:10;60.53;;;33.95;;
57858;SDS011;49153;45.568;11.894;2022-10-16T02:40:37;59.28;;;33.03;;
57858;SDS011;49153;45.568;11.894;2022-10-16T02:43:03;60.63;;;33.20;;
57858;SDS011;49153;45.568;11.894;2022-10-16T02:45:30;55.15;;;32.83;;
57858;SDS011;49153;45.568;11.894;2022-10-16T02:47:55;58.95;;;33.72;;
57858;SDS011;49153;45.568;11.894;2022-10-16T02:50:22;56.42;;;32.40;;
57858;SDS011;49153;45.568;11.894;2022-10-16T02:52:47;62.25;;;35.65;;
57858;SDS011;49153;45.568;11.894;2022-10-16T02:55:13;59.63;;;33.10;;
57858;SDS011;49153;45.568;11.894;2022-10-16T02:57:39;55.20;;;31.13;;
57858;SDS011;49153;45.568;11.894;2022-10-16T03:00:05;56.22;;;33.10;;
57858;SDS011;49153;45.568;11.894;2022-10-16T03:02:34;56.67;;;32.65;;
57858;SDS011;49153;45.568;11.894;2022-10-16T03:05:00;58.13;;;32.63;;
57858;SDS011;49153;45.568;11.894;2022-10-16T03:07:25;57.17;;;33.20;;
57858;SDS011;49153;45.568;11.894;2022-10-16T03:09:51;58.78;;;33.38;;
57858;SDS011;49153;45.568;11.894;2022-10-16T03:12:16;58.65;;;32.88;;
57858;SDS011;49153;45.568;11.894;2022-10-16T03:14:41;57.42;;;33.45;;
57858;SDS011;49153;45.568;11.894;2022-10-16T03:17:07;56.53;;;33.35;;
57858;SDS011;49153;45.568;11.894;2022-10-16T03:19:32;59.05;;;34.83;;
57858;SDS011;49153;45.568;11.894;2022-10-16T03:21:57;55.58;;;32.20;;
57858;SDS011;49153;45.568;11.894;2022-10-16T03:24:23;57.72;;;34.05;;
57858;SDS011;49153;45.568;11.894;2022-10-16T03:26:48;60.70;;;33.30;;
57858;SDS011;49153;45.568;11.894;2022-10-16T03:29:14;58.47;;;33.15;;
57858;SDS011;49153;45.568;11.894;2022-10-16T03:31:39;54.50;;;32.33;;
57858;SDS011;49153;45.568;11.894;2022-10-16T03:34:05;54.60;;;31.73;;
57858;SDS011;49153;45.568;11.894;2022-10-16T03:36:30;59.55;;;33.35;;
57858;SDS011;49153;45.568;11.894;2022-10-16T03:38:56;58.20;;;32.90;;
57858;SDS011;49153;45.568;11.894;2022-10-16T03:41:21;63.00;;;35.65;;
57858;SDS011;49153;45.568;11.894;2022-10-16T03:43:47;65.82;;;35.63;;
57858;SDS011;49153;45.568;11.894;2022-10-16T03:46:13;66.03;;;37.10;;
57858;SDS011;49153;45.568;11.894;2022-10-16T03:48:38;68.25;;;38.20;;
57858;SDS011;49153;45.568;11.894;2022-10-16T03:51:04;69.82;;;37.28;;
57858;SDS011;49153;45.568;11.894;2022-10-16T03:53:30;67.15;;;38.58;;
57858;SDS011;49153;45.568;11.894;2022-10-16T03:55:56;69.95;;;38.20;;
57858;SDS011;49153;45.568;11.894;2022-10-16T03:58:21;64.53;;;36.85;;
57858;SDS011;49153;45.568;11.894;2022-10-16T04:00:47;71.40;;;38.83;;
57858;SDS011;49153;45.568;11.894;2022-10-16T04:03:13;76.15;;;41.53;;
57858;SDS011;49153;45.568;11.894;2022-10-16T04:05:38;75.47;;;41.42;;
57858;SDS011;49153;45.568;11.894;2022-10-16T04:08:04;71.70;;;39.03;;
57858;SDS011;49153;45.568;11.894;2022-10-16T04:10:30;77.75;;;42.00;;
57858;SDS011;49153;45.568;11.894;2022-10-16T04:12:55;71.25;;;39.03;;
57858;SDS011;49153;45.568;11.894;2022-10-16T04:15:21;73.03;;;40.08;;
57858;SDS011;49153;45.568;11.894;2022-10-16T04:17:50;72.97;;;39.60;;
57858;SDS011;49153;45.568;11.894;2022-10-16T04:20:16;77.15;;;41.90;;
57858;SDS011;49153;45.568;11.894;2022-10-16T04:22:42;75.20;;;40.55;;
57858;SDS011;49153;45.568;11.894;2022-10-16T04:25:09;70.50;;;40.08;;
57858;SDS011;49153;45.568;11.894;2022-10-16T04:27:36;76.10;;;40.53;;
57858;SDS011;49153;45.568;11.894;2022-10-16T04:30:03;68.68;;;38.72;;
57858;SDS011;49153;45.568;11.894;2022-10-16T04:32:29;78.45;;;40.25;;
57858;SDS011;49153;45.568;11.894;2022-10-16T04:34:54;68.30;;;38.47;;
57858;SDS011;49153;45.568;11.894;2022-10-16T04:37:23;69.95;;;39.70;;
57858;SDS011;49153;45.568;11.894;2022-10-16T04:39:52;74.28;;;40.60;;
57858;SDS011;49153;45.568;11.894;2022-10-16T04:42:18;69.28;;;38.42;;
57858;SDS011;49153;45.568;11.894;2022-10-16T04:44:44;68.85;;;38.65;;
57858;SDS011;49153;45.568;11.894;2022-10-16T04:47:09;69.38;;;39.13;;
57858;SDS011;49153;45.568;11.894;2022-10-16T04:49:35;63.55;;;36.33;;
57858;SDS011;49153;45.568;11.894;2022-10-16T04:52:00;70.82;;;37.85;;
57858;SDS011;49153;45.568;11.894;2022-10-16T04:54:25;75.30;;;38.33;;
57858;SDS011;49153;45.568;11.894;2022-10-16T04:56:51;65.95;;;36.85;;
57858;SDS011;49153;45.568;11.894;2022-10-16T04:59:17;64.55;;;36.35;;
57858;SDS011;49153;45.568;11.894;2022-10-16T05:01:44;67.22;;;36.60;;
57858;SDS011;49153;45.568;11.894;2022-10-16T05:04:10;62.33;;;35.17;;
57858;SDS011;49153;45.568;11.894;2022-10-16T05:06:37;62.33;;;34.95;;
57858;SDS011;49153;45.568;11.894;2022-10-16T05:09:03;62.15;;;35.05;;
57858;SDS011;49153;45.568;11.894;2022-10-16T05:11:30;64.63;;;34.88;;
57858;SDS011;49153;45.568;11.894;2022-10-16T05:13:55;64.22;;;35.40;;
57858;SDS011;49153;45.568;11.894;2022-10-16T05:16:21;66.50;;;36.70;;
57858;SDS011;49153;45.568;11.894;2022-10-16T05:18:46;62.33;;;34.33;;
57858;SDS011;49153;45.568;11.894;2022-10-16T05:21:11;67.47;;;35.05;;
57858;SDS011;49153;45.568;11.894;2022-10-16T05:23:37;62.17;;;35.88;;
57858;SDS011;49153;45.568;11.894;2022-10-16T05:26:02;61.83;;;34.63;;
57858;SDS011;49153;45.568;11.894;2022-10-16T05:28:28;59.75;;;34.63;;
57858;SDS011;49153;45.568;11.894;2022-10-16T05:30:55;64.47;;;35.28;;
57858;SDS011;49153;45.568;11.894;2022-10-16T05:33:21;63.40;;;34.47;;
57858;SDS011;49153;45.568;11.894;2022-10-16T05:35:48;59.45;;;34.25;;
57858;SDS011;49153;45.568;11.894;2022-10-16T05:38:14;62.00;;;35.75;;
57858;SDS011;49153;45.568;11.894;2022-10-16T05:40:40;58.92;;;33.17;;
57858;SDS011;49153;45.568;11.894;2022-10-16T05:43:06;62.80;;;33.75;;
57858;SDS011;49153;45.568;11.894;2022-10-16T05:45:31;58.75;;;33.83;;
57858;SDS011;49153;45.568;11.894;2022-10-16T05:47:56;62.35;;;34.50;;
57858;SDS011;49153;45.568;11.894;2022-10-16T05:50:22;59.17;;;33.17;;
57858;SDS011;49153;45.568;11.894;2022-10-16T05:52:47;58.22;;;33.28;;
57858;SDS011;49153;45.568;11.894;2022-10-16T05:55:13;56.42;;;32.03;;
57858;SDS011;49153;45.568;11.894;2022-10-16T05:57:38;58.35;;;32.28;;
57858;SDS011;49153;45.568;11.894;2022-10-16T06:00:04;57.53;;;32.67;;
57858;SDS011;49153;45.568;11.894;2022-10-16T06:02:30;54.85;;;31.85;;
57858;SDS011;49153;45.568;11.894;2022-10-16T06:04:56;57.45;;;32.25;;
57858;SDS011;49153;45.568;11.894;2022-10-16T06:07:21;58.08;;;32.53;;
57858;SDS011;49153;45.568;11.894;2022-10-16T06:09:50;58.03;;;32.63;;
57858;SDS011;49153;45.568;11.894;2022-10-16T06:12:17;55.33;;;31.65;;
57858;SDS011;49153;45.568;11.894;2022-10-16T06:14:42;55.20;;;31.33;;
57858;SDS011;49153;45.568;11.894;2022-10-16T06:17:08;57.05;;;32.28;;
57858;SDS011;49153;45.568;11.894;2022-10-16T06:19:33;58.00;;;33.00;;
57858;SDS011;49153;45.568;11.894;2022-10-16T06:21:59;53.00;;;31.33;;
57858;SDS011;49153;45.568;11.894;2022-10-16T06:24:25;56.97;;;33.30;;
57858;SDS011;49153;45.568;11.894;2022-10-16T06:26:50;59.70;;;35.17;;
57858;SDS011;49153;45.568;11.894;2022-10-16T06:29:16;61.90;;;35.05;;
57858;SDS011;49153;45.568;11.894;2022-10-16T06:31:41;63.20;;;35.20;;
57858;SDS011;49153;45.568;11.894;2022-10-16T06:34:08;60.10;;;33.65;;
57858;SDS011;49153;45.568;11.894;2022-10-16T06:36:35;58.30;;;32.47;;
57858;SDS011;49153;45.568;11.894;2022-10-16T06:39:01;57.10;;;32.42;;
57858;SDS011;49153;45.568;11.894;2022-10-16T06:41:27;58.20;;;33.33;;
57858;SDS011;49153;45.568;11.894;2022-10-16T06:43:52;59.30;;;34.83;;
57858;SDS011;49153;45.568;11.894;2022-10-16T06:46:19;57.42;;;33.25;;
57858;SDS011;49153;45.568;11.894;2022-10-16T06:48:46;59.92;;;32.55;;
57858;SDS011;49153;45.568;11.894;2022-10-16T06:51:13;58.28;;;32.65;;
57858;SDS011;49153;45.568;11.894;2022-10-16T06:53:41;59.42;;;34.47;;
57858;SDS011;49153;45.568;11.894;2022-10-16T06:56:15;56.28;;;33.47;;
57858;SDS011;49153;45.568;11.894;2022-10-16T06:58:44;53.67;;;31.98;;
57858;SDS011;49153;45.568;11.894;2022-10-16T07:01:10;59.42;;;33.92;;
57858;SDS011;49153;45.568;11.894;2022-10-16T07:03:37;56.85;;;33.05;;
57858;SDS011;49153;45.568;11.894;2022-10-16T07:06:04;59.80;;;33.47;;
57858;SDS011;49153;45.568;11.894;2022-10-16T07:08:32;57.60;;;34.90;;
57858;SDS011;49153;45.568;11.894;2022-10-16T07:11:01;58.70;;;34.05;;
57858;SDS011;49153;45.568;11.894;2022-10-16T07:13:37;57.70;;;34.40;;
57858;SDS011;49153;45.568;11.894;2022-10-16T07:18:31;57.65;;;32.80;;
57858;SDS011;49153;45.568;11.894;2022-10-16T07:21:06;58.70;;;33.42;;
57858;SDS011;49153;45.568;11.894;2022-10-16T07:23:37;58.60;;;34.60;;
57858;SDS011;49153;45.568;11.894;2022-10-16T07:26:03;57.40;;;33.08;;
57858;SDS011;49153;45.568;11.894;2022-10-16T07:28:30;53.20;;;32.55;;
57858;SDS011;49153;45.568;11.894;2022-10-16T07:30:59;56.75;;;33.25;;
57858;SDS011;49153;45.568;11.894;2022-10-16T07:33:29;55.60;;;33.33;;
57858;SDS011;49153;45.568;11.894;2022-10-16T07:35:55;58.08;;;33.95;;
57858;SDS011;49153;45.568;11.894;2022-10-16T07:38:21;58.45;;;34.10;;
57858;SDS011;49153;45.568;11.894;2022-10-16T07:40:47;58.65;;;33.65;;
57858;SDS011;49153;45.568;11.894;2022-10-16T07:43:14;60.00;;;35.40;;
57858;SDS011;49153;45.568;11.894;2022-10-16T07:45:57;59.35;;;35.55;;
57858;SDS011;49153;45.568;11.894;2022-10-16T07:48:23;62.72;;;34.63;;
57858;SDS011;49153;45.568;11.894;2022-10-16T07:50:52;55.85;;;33.67;;
57858;SDS011;49153;45.568;11.894;2022-10-16T07:53:17;62.38;;;36.90;;
57858;SDS011;49153;45.568;11.894;2022-10-16T07:55:42;59.05;;;34.78;;
57858;SDS011;49153;45.568;11.894;2022-10-16T07:58:08;60.10;;;34.72;;
57858;SDS011;49153;45.568;11.894;2022-10-16T08:00:35;57.05;;;32.83;;
57858;SDS011;49153;45.568;11.894;2022-10-16T08:03:01;58.72;;;35.80;;
57858;SDS011;49153;45.568;11.894;2022-10-16T08:05:28;62.55;;;35.95;;
57858;SDS011;49153;45.568;11.894;2022-10-16T08:07:56;57.30;;;33.42;;
57858;SDS011;49153;45.568;11.894;2022-10-16T08:10:23;58.33;;;34.63;;
57858;SDS011;49153;45.568;11.894;2022-10-16T08:12:50;58.45;;;34.17;;
57858;SDS011;49153;45.568;11.894;2022-10-16T08:15:16;62.70;;;36.10;;
57858;SDS011;49153;45.568;11.894;2022-10-16T08:17:41;57.30;;;34.10;;
57858;SDS011;49153;45.568;11.894;2022-10-16T08:20:07;57.88;;;34.83;;
57858;SDS011;49153;45.568;11.894;2022-10-16T08:22:34;59.03;;;34.90;;
57858;SDS011;49153;45.568;11.894;2022-10-16T08:24:59;59.13;;;35.20;;
57858;SDS011;49153;45.568;11.894;2022-10-16T08:27:24;58.10;;;34.40;;
57858;SDS011;49153;45.568;11.894;2022-10-16T08:29:50;57.00;;;32.80;;
57858;SDS011;49153;45.568;11.894;2022-10-16T08:32:15;59.30;;;35.20;;
57858;SDS011;49153;45.568;11.894;2022-10-16T08:34:41;55.85;;;33.95;;
57858;SDS011;49153;45.568;11.894;2022-10-16T08:37:06;57.92;;;33.90;;
57858;SDS011;49153;45.568;11.894;2022-10-16T08:39:33;59.25;;;35.03;;
57858;SDS011;49153;45.568;11.894;2022-10-16T08:42:07;59.63;;;35.00;;
57858;SDS011;49153;45.568;11.894;2022-10-16T08:45:05;63.72;;;36.05;;
57858;SDS011;49153;45.568;11.894;2022-10-16T08:50:36;53.65;;;32.10;;
57858;SDS011;49153;45.568;11.894;2022-10-16T08:53:04;59.03;;;36.05;;
57858;SDS011;49153;45.568;11.894;2022-10-16T08:55:38;58.03;;;35.00;;
57858;SDS011;49153;45.568;11.894;2022-10-16T08:58:18;56.92;;;34.50;;
57858;SDS011;49153;45.568;11.894;2022-10-16T09:00:47;60.40;;;35.60;;
57858;SDS011;49153;45.568;11.894;2022-10-16T09:03:23;59.03;;;35.97;;
57858;SDS011;49153;45.568;11.894;2022-10-16T09:06:27;62.15;;;36.83;;
57858;SDS011;49153;45.568;11.894;2022-10-16T09:11:41;61.47;;;35.70;;
57858;SDS011;49153;45.568;11.894;2022-10-16T09:16:59;62.30;;;36.13;;
57858;SDS011;49153;45.568;11.894;2022-10-16T09:19:46;59.13;;;33.80;;
57858;SDS011;49153;45.568;11.894;2022-10-16T09:22:18;55.30;;;33.08;;
57858;SDS011;49153;45.568;11.894;2022-10-16T09:24:48;60.25;;;34.67;;
57858;SDS011;49153;45.568;11.894;2022-10-16T09:27:14;63.63;;;36.55;;
57858;SDS011;49153;45.568;11.894;2022-10-16T09:29:40;59.38;;;34.95;;
57858;SDS011;49153;45.568;11.894;2022-10-16T09:32:14;59.00;;;34.75;;
57858;SDS011;49153;45.568;11.894;2022-10-16T09:35:01;56.22;;;34.05;;
57858;SDS011;49153;45.568;11.894;2022-10-16T09:37:27;57.88;;;34.35;;
57858;SDS011;49153;45.568;11.894;2022-10-16T09:39:53;59.88;;;35.90;;
57858;SDS011;49153;45.568;11.894;2022-10-16T09:42:20;60.13;;;35.38;;
57858;SDS011;49153;45.568;11.894;2022-10-16T09:44:50;61.03;;;36.60;;
57858;SDS011;49153;45.568;11.894;2022-10-16T09:47:19;64.65;;;38.55;;
57858;SDS011;49153;45.568;11.894;2022-10-16T09:50:19;62.42;;;36.70;;
57858;SDS011;49153;45.568;11.894;2022-10-16T09:53:13;54.83;;;31.60;;
57858;SDS011;49153;45.568;11.894;2022-10-16T09:55:49;52.30;;;30.90;;
57858;SDS011;49153;45.568;11.894;2022-10-16T09:58:16;52.85;;;32.90;;
57858;SDS011;49153;45.568;11.894;2022-10-16T10:00:42;51.17;;;31.52;;
57858;SDS011;49153;45.568;11.894;2022-10-16T10:03:35;55.85;;;32.65;;
57858;SDS011;49153;45.568;11.894;2022-10-16T10:06:07;45.55;;;28.15;;
57858;SDS011;49153;45.568;11.894;2022-10-16T10:14:50;44.72;;;26.65;;
57858;SDS011;49153;45.568;11.894;2022-10-16T10:17:17;46.42;;;30.23;;
57858;SDS011;49153;45.568;11.894;2022-10-16T10:20:13;55.50;;;32.78;;
57858;SDS011;49153;45.568;11.894;2022-10-16T10:22:46;44.15;;;28.60;;
57858;SDS011;49153;45.568;11.894;2022-10-16T10:30:08;44.33;;;29.08;;
57858;SDS011;49153;45.568;11.894;2022-10-16T10:32:56;47.80;;;28.00;;
57858;SDS011;49153;45.568;11.894;2022-10-16T10:35:31;44.95;;;27.70;;
57858;SDS011;49153;45.568;11.894;2022-10-16T10:44:13;45.30;;;28.30;;
57858;SDS011;49153;45.568;11.894;2022-10-16T10:46:57;43.72;;;27.83;;
57858;SDS011;49153;45.568;11.894;2022-10-16T10:57:48;44.08;;;27.85;;
57858;SDS011;49153;45.568;11.894;2022-10-16T11:05:49;41.58;;;26.00;;
57858;SDS011;49153;45.568;11.894;2022-10-16T11:08:21;42.85;;;26.90;;
57858;SDS011;49153;45.568;11.894;2022-10-16T11:10:54;42.60;;;28.02;;
57858;SDS011;49153;45.568;11.894;2022-10-16T11:16:06;40.80;;;25.17;;
57858;SDS011;49153;45.568;11.894;2022-10-16T11:18:51;41.47;;;26.55;;
57858;SDS011;49153;45.568;11.894;2022-10-16T11:21:22;40.75;;;25.98;;
57858;SDS011;49153;45.568;11.894;2022-10-16T11:23:53;41.03;;;25.48;;
57858;SDS011;49153;45.568;11.894;2022-10-16T11:26:25;40.95;;;25.98;;
57858;SDS011;49153;45.568;11.894;2022-10-16T11:28:54;41.13;;;26.25;;
57858;SDS011;49153;45.568;11.894;2022-10-16T11:31:40;39.03;;;25.70;;
57858;SDS011;49153;45.568;11.894;2022-10-16T11:39:26;40.03;;;25.35;;
57858;SDS011;49153;45.568;11.894;2022-10-16T11:41:55;38.83;;;25.00;;
57858;SDS011;49153;45.568;11.894;2022-10-16T11:47:09;35.40;;;23.85;;
57858;SDS011;49153;45.568;11.894;2022-10-16T11:49:43;36.78;;;23.50;;
57858;SDS011;49153;45.568;11.894;2022-10-16T11:52:19;39.47;;;25.73;;
57858;SDS011;49153;45.568;11.894;2022-10-16T11:54:54;39.80;;;26.17;;
57858;SDS011;49153;45.568;11.894;2022-10-16T11:57:25;42.92;;;26.58;;
57858;SDS011;49153;45.568;11.894;2022-10-16T12:05:22;40.35;;;25.60;;
57858;SDS011;49153;45.568;11.894;2022-10-16T12:07:56;35.38;;;23.83;;
57858;SDS011;49153;45.568;11.894;2022-10-16T12:10:32;36.47;;;24.25;;
57858;SDS011;49153;45.568;11.894;2022-10-16T12:13:02;36.40;;;23.95;;
57858;SDS011;49153;45.568;11.894;2022-10-16T12:15:47;37.88;;;24.52;;
57858;SDS011;49153;45.568;11.894;2022-10-16T12:18:22;36.17;;;24.25;;
57858;SDS011;49153;45.568;11.894;2022-10-16T12:20:55;43.13;;;25.90;;
57858;SDS011;49153;45.568;11.894;2022-10-16T12:23:29;39.83;;;25.38;;
57858;SDS011;49153;45.568;11.894;2022-10-16T12:25:56;39.03;;;25.15;;
57858;SDS011;49153;45.568;11.894;2022-10-16T12:28:27;35.17;;;23.65;;
57858;SDS011;49153;45.568;11.894;2022-10-16T12:30:58;37.67;;;24.70;;
57858;SDS011;49153;45.568;11.894;2022-10-16T12:33:27;34.35;;;22.42;;
57858;SDS011;49153;45.568;11.894;2022-10-16T12:35:55;35.75;;;23.80;;
57858;SDS011;49153;45.568;11.894;2022-10-16T12:38:45;34.03;;;22.30;;
57858;SDS011;49153;45.568;11.894;2022-10-16T12:41:12;36.58;;;23.75;;
57858;SDS011;49153;45.568;11.894;2022-10-16T12:43:48;35.08;;;23.42;;
57858;SDS011;49153;45.568;11.894;2022-10-16T12:48:40;36.50;;;23.58;;
57858;SDS011;49153;45.568;11.894;2022-10-16T12:51:12;34.58;;;23.77;;
57858;SDS011;49153;45.568;11.894;2022-10-16T12:54:37;35.47;;;23.67;;
57858;SDS011;49153;45.568;11.894;2022-10-16T13:05:33;38.22;;;24.85;;
57858;SDS011;49153;45.568;11.894;2022-10-16T13:08:14;40.63;;;25.35;;
57858;SDS011;49153;45.568;11.894;2022-10-16T13:11:06;38.47;;;23.85;;
57858;SDS011;49153;45.568;11.894;2022-10-16T13:13:53;34.85;;;22.38;;
57858;SDS011;49153;45.568;11.894;2022-10-16T13:19:27;37.85;;;23.67;;
57858;SDS011;49153;45.568;11.894;2022-10-16T13:24:49;35.45;;;23.73;;
57858;SDS011;49153;45.568;11.894;2022-10-16T13:27:29;33.30;;;22.88;;
57858;SDS011;49153;45.568;11.894;2022-10-16T13:30:01;34.38;;;23.95;;
57858;SDS011;49153;45.568;11.894;2022-10-16T13:32:35;33.33;;;23.38;;
57858;SDS011;49153;45.568;11.894;2022-10-16T13:35:01;33.67;;;21.77;;
57858;SDS011;49153;45.568;11.894;2022-10-16T13:37:26;35.80;;;23.65;;
57858;SDS011;49153;45.568;11.894;2022-10-16T13:40:02;36.67;;;23.98;;
57858;SDS011;49153;45.568;11.894;2022-10-16T13:42:42;31.75;;;21.50;;
57858;SDS011;49153;45.568;11.894;2022-10-16T13:45:17;38.97;;;25.42;;
57858;SDS011;49153;45.568;11.894;2022-10-16T13:47:47;39.25;;;24.95;;
57858;SDS011;49153;45.568;11.894;2022-10-16T13:50:14;41.40;;;25.13;;
57858;SDS011;49153;45.568;11.894;2022-10-16T13:52:42;40.87;;;25.37;;
57858;SDS011;49153;45.568;11.894;2022-10-16T13:55:12;32.53;;;22.63;;
57858;SDS011;49153;45.568;11.894;2022-10-16T13:57:42;39.20;;;25.48;;
57858;SDS011;49153;45.568;11.894;2022-10-16T14:00:25;35.85;;;24.73;;
57858;SDS011;49153;45.568;11.894;2022-10-16T14:03:11;38.05;;;24.27;;
57858;SDS011;49153;45.568;11.894;2022-10-16T14:05:59;33.38;;;22.35;;
57858;SDS011;49153;45.568;11.894;2022-10-16T14:08:27;37.92;;;24.13;;
57858;SDS011;49153;45.568;11.894;2022-10-16T14:10:55;36.33;;;24.52;;
57858;SDS011;49153;45.568;11.894;2022-10-16T14:13:29;37.22;;;24.58;;
57858;SDS011;49153;45.568;11.894;2022-10-16T14:15:59;35.47;;;23.17;;
57858;SDS011;49153;45.568;11.894;2022-10-16T14:18:31;33.28;;;22.63;;
57858;SDS011;49153;45.568;11.894;2022-10-16T14:21:02;33.22;;;23.50;;
57858;SDS011;49153;45.568;11.894;2022-10-16T14:23:37;30.08;;;22.20;;
57858;SDS011;49153;45.568;11.894;2022-10-16T14:28:38;33.17;;;22.50;;
57858;SDS011;49153;45.568;11.894;2022-10-16T14:31:27;34.15;;;22.92;;
57858;SDS011;49153;45.568;11.894;2022-10-16T14:33:57;34.22;;;22.38;;
57858;SDS011;49153;45.568;11.894;2022-10-16T14:36:23;34.28;;;23.10;;
57858;SDS011;49153;45.568;11.894;2022-10-16T14:39:01;30.25;;;21.75;;
57858;SDS011;49153;45.568;11.894;2022-10-16T14:41:46;33.00;;;21.50;;
57858;SDS011;49153;45.568;11.894;2022-10-16T14:44:13;33.92;;;21.50;;
57858;SDS011;49153;45.568;11.894;2022-10-16T14:46:41;33.50;;;23.85;;
57858;SDS011;49153;45.568;11.894;2022-10-16T14:51:37;33.58;;;21.48;;
57858;SDS011;49153;45.568;11.894;2022-10-16T14:54:03;32.15;;;21.63;;
57858;SDS011;49153;45.568;11.894;2022-10-16T14:56:30;34.17;;;22.52;;
57858;SDS011;49153;45.568;11.894;2022-10-16T14:58:59;32.95;;;22.67;;
57858;SDS011;49153;45.568;11.894;2022-10-16T15:01:26;32.53;;;21.95;;
57858;SDS011;49153;45.568;11.894;2022-10-16T15:03:51;31.17;;;20.67;;
57858;SDS011;49153;45.568;11.894;2022-10-16T15:06:19;30.77;;;21.50;;
57858;SDS011;49153;45.568;11.894;2022-10-16T15:08:44;34.58;;;23.35;;
57858;SDS011;49153;45.568;11.894;2022-10-16T15:11:14;32.20;;;22.63;;
57858;SDS011;49153;45.568;11.894;2022-10-16T15:13:41;29.35;;;20.98;;
57858;SDS011;49153;45.568;11.894;2022-10-16T15:16:14;36.15;;;23.67;;
57858;SDS011;49153;45.568;11.894;2022-10-16T15:18:41;29.70;;;20.95;;
57858;SDS011;49153;45.568;11.894;2022-10-16T15:21:07;32.83;;;22.42;;
57858;SDS011;49153;45.568;11.894;2022-10-16T15:23:33;33.05;;;22.33;;
57858;SDS011;49153;45.568;11.894;2022-10-16T15:25:58;32.30;;;21.90;;
57858;SDS011;49153;45.568;11.894;2022-10-16T15:28:24;32.75;;;21.60;;
57858;SDS011;49153;45.568;11.894;2022-10-16T15:30:52;28.88;;;20.65;;
57858;SDS011;49153;45.568;11.894;2022-10-16T15:33:20;31.08;;;21.48;;
57858;SDS011;49153;45.568;11.894;2022-10-16T15:35:50;30.50;;;20.77;;
57858;SDS011;49153;45.568;11.894;2022-10-16T15:38:17;30.65;;;21.77;;
57858;SDS011;49153;45.568;11.894;2022-10-16T15:40:47;32.17;;;21.65;;
57858;SDS011;49153;45.568;11.894;2022-10-16T15:43:13;29.20;;;21.50;;
57858;SDS011;49153;45.568;11.894;2022-10-16T15:45:39;31.60;;;22.33;;
57858;SDS011;49153;45.568;11.894;2022-10-16T15:48:04;36.85;;;23.58;;
57858;SDS011;49153;45.568;11.894;2022-10-16T15:50:30;32.15;;;21.70;;
57858;SDS011;49153;45.568;11.894;2022-10-16T15:52:57;32.53;;;21.63;;
57858;SDS011;49153;45.568;11.894;2022-10-16T15:55:22;32.75;;;22.42;;
57858;SDS011;49153;45.568;11.894;2022-10-16T15:57:48;33.78;;;22.55;;